sensor_id;sensor_type;location;lat;lon;timestamp;P1;durP1;ratioP1;P2;durP2;ratioP2
76131;SDS011;64877;50.994;13.650;2023-12-04T00:01:45;21.02;;;8.93;;
76131;SDS011;64877;50.994;13.650;2023-12-04T00:04:12;21.20;;;10.90;;
76131;SDS011;64877;50.994;13.650;2023-12-04T00:06:37;20.73;;;9.90;;
76131;SDS011;64877;50.994;13.650;2023-12-04T00:09:03;21.83;;;9.60;;
76131;SDS011;64877;50.994;13.650;2023-12-04T00:11:29;22.75;;;10.00;;
76131;SDS011;64877;50.994;13.650;2023-12-04T00:13:54;19.13;;;9.68;;
76131;SDS011;64877;50.994;13.650;2023-12-04T00:16:19;19.02;;;10.27;;
76131;SDS011;64877;50.994;13.650;2023-12-04T00:18:45;23.02;;;10.15;;
76131;SDS011;64877;50.994;13.650;2023-12-04T00:21:10;19.10;;;10.43;;
76131;SDS011;64877;50.994;13.650;2023-12-04T00:23:35;18.58;;;9.40;;
76131;SDS011;64877;50.994;13.650;2023-12-04T00:26:01;20.52;;;10.20;;
76131;SDS011;64877;50.994;13.650;2023-12-04T00:28:27;20.92;;;9.57;;
76131;SDS011;64877;50.994;13.650;2023-12-04T00:30:54;20.17;;;9.45;;
76131;SDS011;64877;50.994;13.650;2023-12-04T00:33:19;19.02;;;9.20;;
76131;SDS011;64877;50.994;13.650;2023-12-04T00:35:45;18.00;;;8.50;;
76131;SDS011;64877;50.994;13.650;2023-12-04T00:38:10;20.35;;;9.05;;
76131;SDS011;64877;50.994;13.650;2023-12-04T00:40:36;19.20;;;9.50;;
76131;SDS011;64877;50.994;13.650;2023-12-04T00:43:01;19.60;;;9.55;;
76131;SDS011;64877;50.994;13.650;2023-12-04T00:45:26;18.88;;;9.82;;
76131;SDS011;64877;50.994;13.650;2023-12-04T00:47:52;17.70;;;8.35;;
76131;SDS011;64877;50.994;13.650;2023-12-04T00:50:17;17.85;;;8.43;;
76131;SDS011;64877;50.994;13.650;2023-12-04T00:52:42;17.20;;;8.20;;
76131;SDS011;64877;50.994;13.650;2023-12-04T00:55:08;16.80;;;8.73;;
76131;SDS011;64877;50.994;13.650;2023-12-04T00:57:33;16.52;;;7.70;;
76131;SDS011;64877;50.994;13.650;2023-12-04T00:59:59;14.32;;;7.53;;
76131;SDS011;64877;50.994;13.650;2023-12-04T01:02:24;15.23;;;8.18;;
76131;SDS011;64877;50.994;13.650;2023-12-04T01:04:50;15.02;;;7.40;;
76131;SDS011;64877;50.994;13.650;2023-12-04T01:07:15;16.27;;;7.50;;
76131;SDS011;64877;50.994;13.650;2023-12-04T01:09:41;13.13;;;7.15;;
76131;SDS011;64877;50.994;13.650;2023-12-04T01:12:06;13.05;;;7.05;;
76131;SDS011;64877;50.994;13.650;2023-12-04T01:14:32;13.68;;;6.60;;
76131;SDS011;64877;50.994;13.650;2023-12-04T01:16:58;15.68;;;7.72;;
76131;SDS011;64877;50.994;13.650;2023-12-04T01:19:23;15.10;;;7.60;;
76131;SDS011;64877;50.994;13.650;2023-12-04T01:21:49;13.27;;;7.47;;
76131;SDS011;64877;50.994;13.650;2023-12-04T01:24:14;15.85;;;7.45;;
76131;SDS011;64877;50.994;13.650;2023-12-04T01:26:41;16.25;;;6.22;;
76131;SDS011;64877;50.994;13.650;2023-12-04T01:29:06;12.82;;;6.72;;
76131;SDS011;64877;50.994;13.650;2023-12-04T01:31:32;12.68;;;6.93;;
76131;SDS011;64877;50.994;13.650;2023-12-04T01:33:57;14.27;;;7.20;;
76131;SDS011;64877;50.994;13.650;2023-12-04T01:36:23;11.02;;;5.82;;
76131;SDS011;64877;50.994;13.650;2023-12-04T01:38:48;12.18;;;5.70;;
76131;SDS011;64877;50.994;13.650;2023-12-04T01:41:14;12.30;;;6.20;;
76131;SDS011;64877;50.994;13.650;2023-12-04T01:43:39;11.80;;;6.53;;
76131;SDS011;64877;50.994;13.650;2023-12-04T01:46:05;11.13;;;6.25;;
76131;SDS011;64877;50.994;13.650;2023-12-04T01:48:32;11.85;;;5.85;;
76131;SDS011;64877;50.994;13.650;2023-12-04T01:50:58;10.82;;;5.60;;
76131;SDS011;64877;50.994;13.650;2023-12-04T01:53:28;9.45;;;5.30;;
76131;SDS011;64877;50.994;13.650;2023-12-04T01:55:53;12.75;;;6.75;;
76131;SDS011;64877;50.994;13.650;2023-12-04T01:58:19;10.90;;;5.35;;
76131;SDS011;64877;50.994;13.650;2023-12-04T02:00:46;13.27;;;7.35;;
76131;SDS011;64877;50.994;13.650;2023-12-04T02:03:11;13.18;;;6.00;;
76131;SDS011;64877;50.994;13.650;2023-12-04T02:05:37;11.30;;;5.82;;
76131;SDS011;64877;50.994;13.650;2023-12-04T02:08:04;10.00;;;5.43;;
76131;SDS011;64877;50.994;13.650;2023-12-04T02:10:30;10.98;;;6.30;;
76131;SDS011;64877;50.994;13.650;2023-12-04T02:12:55;9.88;;;4.97;;
76131;SDS011;64877;50.994;13.650;2023-12-04T02:15:21;9.95;;;5.38;;
76131;SDS011;64877;50.994;13.650;2023-12-04T02:17:47;10.73;;;5.35;;
76131;SDS011;64877;50.994;13.650;2023-12-04T02:20:13;11.52;;;5.68;;
76131;SDS011;64877;50.994;13.650;2023-12-04T02:22:39;9.48;;;5.22;;
76131;SDS011;64877;50.994;13.650;2023-12-04T02:25:05;9.65;;;5.40;;
76131;SDS011;64877;50.994;13.650;2023-12-04T02:27:37;12.15;;;4.85;;
76131;SDS011;64877;50.994;13.650;2023-12-04T02:30:09;9.07;;;4.32;;
76131;SDS011;64877;50.994;13.650;2023-12-04T02:32:38;8.85;;;4.75;;
76131;SDS011;64877;50.994;13.650;2023-12-04T02:35:09;8.82;;;4.60;;
76131;SDS011;64877;50.994;13.650;2023-12-04T02:37:36;10.50;;;4.80;;
76131;SDS011;64877;50.994;13.650;2023-12-04T02:40:03;11.60;;;5.03;;
76131;SDS011;64877;50.994;13.650;2023-12-04T02:42:31;10.63;;;4.95;;
76131;SDS011;64877;50.994;13.650;2023-12-04T02:44:57;12.82;;;5.22;;
76131;SDS011;64877;50.994;13.650;2023-12-04T02:47:23;8.65;;;4.55;;
76131;SDS011;64877;50.994;13.650;2023-12-04T02:49:48;9.57;;;4.78;;
76131;SDS011;64877;50.994;13.650;2023-12-04T02:52:13;12.30;;;5.72;;
76131;SDS011;64877;50.994;13.650;2023-12-04T02:54:39;8.98;;;4.68;;
76131;SDS011;64877;50.994;13.650;2023-12-04T02:57:04;10.07;;;5.45;;
76131;SDS011;64877;50.994;13.650;2023-12-04T02:59:30;9.05;;;4.68;;
76131;SDS011;64877;50.994;13.650;2023-12-04T03:01:55;10.55;;;4.88;;
76131;SDS011;64877;50.994;13.650;2023-12-04T03:04:20;9.05;;;4.95;;
76131;SDS011;64877;50.994;13.650;2023-12-04T03:06:46;9.02;;;4.43;;
76131;SDS011;64877;50.994;13.650;2023-12-04T03:09:11;8.95;;;4.75;;
76131;SDS011;64877;50.994;13.650;2023-12-04T03:11:40;9.02;;;4.70;;
76131;SDS011;64877;50.994;13.650;2023-12-04T03:14:06;10.05;;;5.00;;
76131;SDS011;64877;50.994;13.650;2023-12-04T03:16:32;8.73;;;4.70;;
76131;SDS011;64877;50.994;13.650;2023-12-04T03:18:57;7.13;;;4.70;;
76131;SDS011;64877;50.994;13.650;2023-12-04T03:21:23;9.65;;;4.40;;
76131;SDS011;64877;50.994;13.650;2023-12-04T03:23:48;10.93;;;4.75;;
76131;SDS011;64877;50.994;13.650;2023-12-04T03:26:13;7.78;;;3.83;;
76131;SDS011;64877;50.994;13.650;2023-12-04T03:28:39;9.25;;;5.05;;
76131;SDS011;64877;50.994;13.650;2023-12-04T03:31:07;9.73;;;4.57;;
76131;SDS011;64877;50.994;13.650;2023-12-04T03:33:33;9.63;;;5.15;;
76131;SDS011;64877;50.994;13.650;2023-12-04T03:35:59;10.43;;;4.00;;
76131;SDS011;64877;50.994;13.650;2023-12-04T03:38:24;7.75;;;4.10;;
76131;SDS011;64877;50.994;13.650;2023-12-04T03:40:50;8.93;;;5.18;;
76131;SDS011;64877;50.994;13.650;2023-12-04T03:43:15;10.45;;;5.07;;
76131;SDS011;64877;50.994;13.650;2023-12-04T03:45:41;10.35;;;4.97;;
76131;SDS011;64877;50.994;13.650;2023-12-04T03:48:06;9.52;;;4.32;;
76131;SDS011;64877;50.994;13.650;2023-12-04T03:50:32;9.23;;;4.63;;
76131;SDS011;64877;50.994;13.650;2023-12-04T03:52:57;9.60;;;4.88;;
76131;SDS011;64877;50.994;13.650;2023-12-04T03:55:22;10.02;;;5.07;;
76131;SDS011;64877;50.994;13.650;2023-12-04T03:57:48;9.90;;;4.63;;
76131;SDS011;64877;50.994;13.650;2023-12-04T04:00:13;9.13;;;4.80;;
76131;SDS011;64877;50.994;13.650;2023-12-04T04:02:39;10.30;;;4.97;;
76131;SDS011;64877;50.994;13.650;2023-12-04T04:05:05;8.93;;;4.10;;
76131;SDS011;64877;50.994;13.650;2023-12-04T04:07:31;9.20;;;4.25;;
76131;SDS011;64877;50.994;13.650;2023-12-04T04:09:56;7.50;;;4.22;;
76131;SDS011;64877;50.994;13.650;2023-12-04T04:12:22;7.22;;;3.80;;
76131;SDS011;64877;50.994;13.650;2023-12-04T04:14:47;9.00;;;4.53;;
76131;SDS011;64877;50.994;13.650;2023-12-04T04:17:13;8.10;;;4.13;;
76131;SDS011;64877;50.994;13.650;2023-12-04T04:19:38;11.00;;;4.55;;
76131;SDS011;64877;50.994;13.650;2023-12-04T04:22:04;10.23;;;4.25;;
76131;SDS011;64877;50.994;13.650;2023-12-04T04:24:29;7.43;;;4.05;;
76131;SDS011;64877;50.994;13.650;2023-12-04T04:26:54;7.95;;;4.43;;
76131;SDS011;64877;50.994;13.650;2023-12-04T04:29:20;8.73;;;4.13;;
76131;SDS011;64877;50.994;13.650;2023-12-04T04:31:45;8.63;;;4.40;;
76131;SDS011;64877;50.994;13.650;2023-12-04T04:34:10;11.30;;;3.95;;
76131;SDS011;64877;50.994;13.650;2023-12-04T04:36:36;9.20;;;3.92;;
76131;SDS011;64877;50.994;13.650;2023-12-04T04:39:02;8.48;;;4.28;;
76131;SDS011;64877;50.994;13.650;2023-12-04T04:41:27;7.90;;;3.85;;
76131;SDS011;64877;50.994;13.650;2023-12-04T04:43:53;7.25;;;3.90;;
76131;SDS011;64877;50.994;13.650;2023-12-04T04:46:18;8.27;;;4.30;;
76131;SDS011;64877;50.994;13.650;2023-12-04T04:48:44;7.90;;;3.70;;
76131;SDS011;64877;50.994;13.650;2023-12-04T04:51:09;6.72;;;3.70;;
76131;SDS011;64877;50.994;13.650;2023-12-04T04:53:35;7.45;;;3.58;;
76131;SDS011;64877;50.994;13.650;2023-12-04T04:56:00;7.03;;;3.78;;
76131;SDS011;64877;50.994;13.650;2023-12-04T04:58:25;6.25;;;3.45;;
76131;SDS011;64877;50.994;13.650;2023-12-04T05:00:51;7.65;;;4.05;;
76131;SDS011;64877;50.994;13.650;2023-12-04T05:03:16;7.30;;;3.38;;
76131;SDS011;64877;50.994;13.650;2023-12-04T05:05:42;7.68;;;4.13;;
76131;SDS011;64877;50.994;13.650;2023-12-04T05:08:07;7.43;;;3.70;;
76131;SDS011;64877;50.994;13.650;2023-12-04T05:10:32;5.72;;;3.50;;
76131;SDS011;64877;50.994;13.650;2023-12-04T05:12:58;5.93;;;3.20;;
76131;SDS011;64877;50.994;13.650;2023-12-04T05:15:23;7.10;;;3.55;;
76131;SDS011;64877;50.994;13.650;2023-12-04T05:17:49;11.55;;;6.53;;
76131;SDS011;64877;50.994;13.650;2023-12-04T05:20:16;9.05;;;4.72;;
76131;SDS011;64877;50.994;13.650;2023-12-04T05:22:41;9.25;;;5.00;;
76131;SDS011;64877;50.994;13.650;2023-12-04T05:25:07;9.98;;;4.75;;
76131;SDS011;64877;50.994;13.650;2023-12-04T05:27:32;8.77;;;4.40;;
76131;SDS011;64877;50.994;13.650;2023-12-04T05:29:58;8.13;;;3.30;;
76131;SDS011;64877;50.994;13.650;2023-12-04T05:32:23;11.30;;;5.78;;
76131;SDS011;64877;50.994;13.650;2023-12-04T05:34:49;9.88;;;4.82;;
76131;SDS011;64877;50.994;13.650;2023-12-04T05:37:14;12.45;;;5.55;;
76131;SDS011;64877;50.994;13.650;2023-12-04T05:39:39;12.25;;;5.97;;
76131;SDS011;64877;50.994;13.650;2023-12-04T05:42:05;9.38;;;3.97;;
76131;SDS011;64877;50.994;13.650;2023-12-04T05:44:30;9.25;;;4.10;;
76131;SDS011;64877;50.994;13.650;2023-12-04T05:46:56;8.13;;;4.22;;
76131;SDS011;64877;50.994;13.650;2023-12-04T05:49:22;8.13;;;4.63;;
76131;SDS011;64877;50.994;13.650;2023-12-04T05:51:47;9.23;;;4.57;;
76131;SDS011;64877;50.994;13.650;2023-12-04T05:54:13;12.20;;;5.40;;
76131;SDS011;64877;50.994;13.650;2023-12-04T05:56:38;8.18;;;4.45;;
76131;SDS011;64877;50.994;13.650;2023-12-04T05:59:03;11.48;;;6.65;;
76131;SDS011;64877;50.994;13.650;2023-12-04T06:01:29;9.27;;;5.65;;
76131;SDS011;64877;50.994;13.650;2023-12-04T06:03:54;9.98;;;5.07;;
76131;SDS011;64877;50.994;13.650;2023-12-04T06:06:20;9.65;;;4.80;;
76131;SDS011;64877;50.994;13.650;2023-12-04T06:08:45;11.80;;;5.35;;
76131;SDS011;64877;50.994;13.650;2023-12-04T06:11:10;10.07;;;4.63;;
76131;SDS011;64877;50.994;13.650;2023-12-04T06:13:36;10.18;;;5.05;;
76131;SDS011;64877;50.994;13.650;2023-12-04T06:16:01;9.73;;;5.43;;
76131;SDS011;64877;50.994;13.650;2023-12-04T06:18:27;10.43;;;5.85;;
76131;SDS011;64877;50.994;13.650;2023-12-04T06:20:52;12.77;;;6.57;;
76131;SDS011;64877;50.994;13.650;2023-12-04T06:23:18;13.13;;;6.75;;
76131;SDS011;64877;50.994;13.650;2023-12-04T06:25:44;12.80;;;7.00;;
76131;SDS011;64877;50.994;13.650;2023-12-04T06:28:10;13.25;;;6.22;;
76131;SDS011;64877;50.994;13.650;2023-12-04T06:30:35;12.65;;;6.15;;
76131;SDS011;64877;50.994;13.650;2023-12-04T06:33:01;12.68;;;6.50;;
76131;SDS011;64877;50.994;13.650;2023-12-04T06:35:27;14.15;;;6.85;;
76131;SDS011;64877;50.994;13.650;2023-12-04T06:37:53;14.68;;;7.28;;
76131;SDS011;64877;50.994;13.650;2023-12-04T06:40:20;12.02;;;6.15;;
76131;SDS011;64877;50.994;13.650;2023-12-04T06:42:46;16.85;;;6.60;;
76131;SDS011;64877;50.994;13.650;2023-12-04T06:45:11;13.48;;;7.25;;
76131;SDS011;64877;50.994;13.650;2023-12-04T06:47:40;13.63;;;7.32;;
76131;SDS011;64877;50.994;13.650;2023-12-04T06:50:08;13.43;;;7.40;;
76131;SDS011;64877;50.994;13.650;2023-12-04T06:52:33;11.07;;;6.50;;
76131;SDS011;64877;50.994;13.650;2023-12-04T06:54:59;12.32;;;6.53;;
76131;SDS011;64877;50.994;13.650;2023-12-04T06:57:24;12.95;;;7.00;;
76131;SDS011;64877;50.994;13.650;2023-12-04T06:59:50;17.02;;;6.20;;
76131;SDS011;64877;50.994;13.650;2023-12-04T07:02:15;12.38;;;6.80;;
76131;SDS011;64877;50.994;13.650;2023-12-04T07:04:41;13.30;;;7.05;;
76131;SDS011;64877;50.994;13.650;2023-12-04T07:07:06;15.20;;;6.45;;
76131;SDS011;64877;50.994;13.650;2023-12-04T07:09:32;15.05;;;6.65;;
76131;SDS011;64877;50.994;13.650;2023-12-04T07:11:58;16.95;;;7.97;;
76131;SDS011;64877;50.994;13.650;2023-12-04T07:14:23;16.20;;;6.90;;
76131;SDS011;64877;50.994;13.650;2023-12-04T07:16:48;14.95;;;7.53;;
76131;SDS011;64877;50.994;13.650;2023-12-04T07:19:14;12.75;;;6.22;;
76131;SDS011;64877;50.994;13.650;2023-12-04T07:21:41;12.60;;;6.93;;
76131;SDS011;64877;50.994;13.650;2023-12-04T07:24:07;14.65;;;6.88;;
76131;SDS011;64877;50.994;13.650;2023-12-04T07:26:33;18.92;;;7.13;;
76131;SDS011;64877;50.994;13.650;2023-12-04T07:28:59;11.80;;;6.20;;
76131;SDS011;64877;50.994;13.650;2023-12-04T07:31:25;12.70;;;7.32;;
76131;SDS011;64877;50.994;13.650;2023-12-04T07:33:54;12.75;;;6.60;;
76131;SDS011;64877;50.994;13.650;2023-12-04T07:36:20;14.65;;;7.65;;
76131;SDS011;64877;50.994;13.650;2023-12-04T07:38:46;15.45;;;7.55;;
76131;SDS011;64877;50.994;13.650;2023-12-04T07:41:12;14.80;;;7.38;;
76131;SDS011;64877;50.994;13.650;2023-12-04T07:43:38;11.82;;;6.55;;
76131;SDS011;64877;50.994;13.650;2023-12-04T07:46:04;15.25;;;6.22;;
76131;SDS011;64877;50.994;13.650;2023-12-04T07:48:30;15.38;;;6.53;;
76131;SDS011;64877;50.994;13.650;2023-12-04T07:50:56;13.02;;;6.05;;
76131;SDS011;64877;50.994;13.650;2023-12-04T07:53:21;11.13;;;6.55;;
76131;SDS011;64877;50.994;13.650;2023-12-04T07:55:48;10.88;;;5.72;;
76131;SDS011;64877;50.994;13.650;2023-12-04T07:58:16;13.32;;;7.82;;
76131;SDS011;64877;50.994;13.650;2023-12-04T08:00:43;18.90;;;6.90;;
76131;SDS011;64877;50.994;13.650;2023-12-04T08:03:09;18.65;;;8.32;;
76131;SDS011;64877;50.994;13.650;2023-12-04T08:05:35;16.60;;;8.23;;
76131;SDS011;64877;50.994;13.650;2023-12-04T08:08:00;19.33;;;9.75;;
76131;SDS011;64877;50.994;13.650;2023-12-04T08:10:25;32.40;;;13.30;;
76131;SDS011;64877;50.994;13.650;2023-12-04T08:12:53;16.83;;;8.18;;
76131;SDS011;64877;50.994;13.650;2023-12-04T08:15:19;15.80;;;7.90;;
76131;SDS011;64877;50.994;13.650;2023-12-04T08:17:44;20.77;;;10.63;;
76131;SDS011;64877;50.994;13.650;2023-12-04T08:20:10;21.73;;;9.18;;
76131;SDS011;64877;50.994;13.650;2023-12-04T08:22:39;24.52;;;12.80;;
76131;SDS011;64877;50.994;13.650;2023-12-04T08:25:05;22.15;;;11.88;;
76131;SDS011;64877;50.994;13.650;2023-12-04T08:27:34;26.00;;;10.32;;
76131;SDS011;64877;50.994;13.650;2023-12-04T08:30:00;16.90;;;7.68;;
76131;SDS011;64877;50.994;13.650;2023-12-04T08:32:25;16.13;;;7.53;;
76131;SDS011;64877;50.994;13.650;2023-12-04T08:34:51;13.15;;;7.00;;
76131;SDS011;64877;50.994;13.650;2023-12-04T08:37:18;14.43;;;6.53;;
76131;SDS011;64877;50.994;13.650;2023-12-04T08:39:44;16.35;;;8.23;;
76131;SDS011;64877;50.994;13.650;2023-12-04T08:42:09;12.85;;;6.47;;
76131;SDS011;64877;50.994;13.650;2023-12-04T08:44:35;13.70;;;6.78;;
76131;SDS011;64877;50.994;13.650;2023-12-04T08:47:00;14.50;;;7.05;;
76131;SDS011;64877;50.994;13.650;2023-12-04T08:49:26;14.05;;;7.18;;
76131;SDS011;64877;50.994;13.650;2023-12-04T08:51:52;12.02;;;6.93;;
76131;SDS011;64877;50.994;13.650;2023-12-04T08:56:45;14.77;;;8.63;;
76131;SDS011;64877;50.994;13.650;2023-12-04T08:59:10;17.90;;;9.02;;
76131;SDS011;64877;50.994;13.650;2023-12-04T09:01:37;23.73;;;12.48;;
76131;SDS011;64877;50.994;13.650;2023-12-04T09:04:03;7.85;;;4.55;;
76131;SDS011;64877;50.994;13.650;2023-12-04T09:06:29;9.45;;;5.22;;
76131;SDS011;64877;50.994;13.650;2023-12-04T09:08:55;14.90;;;5.82;;
76131;SDS011;64877;50.994;13.650;2023-12-04T09:11:20;10.80;;;5.53;;
76131;SDS011;64877;50.994;13.650;2023-12-04T09:13:45;8.45;;;4.82;;
76131;SDS011;64877;50.994;13.650;2023-12-04T09:16:11;8.45;;;4.85;;
76131;SDS011;64877;50.994;13.650;2023-12-04T09:18:36;11.23;;;5.25;;
76131;SDS011;64877;50.994;13.650;2023-12-04T09:21:02;9.68;;;5.20;;
76131;SDS011;64877;50.994;13.650;2023-12-04T09:23:28;9.13;;;4.47;;
76131;SDS011;64877;50.994;13.650;2023-12-04T09:25:53;7.95;;;4.28;;
76131;SDS011;64877;50.994;13.650;2023-12-04T09:28:18;7.05;;;4.55;;
76131;SDS011;64877;50.994;13.650;2023-12-04T09:30:44;8.35;;;4.97;;
76131;SDS011;64877;50.994;13.650;2023-12-04T09:33:09;7.28;;;4.10;;
76131;SDS011;64877;50.994;13.650;2023-12-04T09:35:35;7.10;;;4.18;;
76131;SDS011;64877;50.994;13.650;2023-12-04T09:38:00;7.72;;;4.50;;
76131;SDS011;64877;50.994;13.650;2023-12-04T09:40:26;7.72;;;4.53;;
76131;SDS011;64877;50.994;13.650;2023-12-04T09:42:51;8.77;;;4.72;;
76131;SDS011;64877;50.994;13.650;2023-12-04T09:45:19;8.07;;;4.40;;
76131;SDS011;64877;50.994;13.650;2023-12-04T09:47:48;7.80;;;4.35;;
76131;SDS011;64877;50.994;13.650;2023-12-04T09:50:17;7.55;;;4.18;;
76131;SDS011;64877;50.994;13.650;2023-12-04T09:52:50;8.85;;;4.15;;
76131;SDS011;64877;50.994;13.650;2023-12-04T09:55:17;7.18;;;4.38;;
76131;SDS011;64877;50.994;13.650;2023-12-04T09:57:46;7.32;;;3.95;;
76131;SDS011;64877;50.994;13.650;2023-12-04T10:00:14;6.97;;;3.47;;
76131;SDS011;64877;50.994;13.650;2023-12-04T10:02:40;7.53;;;4.30;;
76131;SDS011;64877;50.994;13.650;2023-12-04T10:05:06;8.50;;;4.15;;
76131;SDS011;64877;50.994;13.650;2023-12-04T10:07:33;8.27;;;4.43;;
76131;SDS011;64877;50.994;13.650;2023-12-04T10:09:59;9.05;;;4.72;;
76131;SDS011;64877;50.994;13.650;2023-12-04T10:12:25;6.50;;;3.55;;
76131;SDS011;64877;50.994;13.650;2023-12-04T10:15:02;7.80;;;4.30;;
76131;SDS011;64877;50.994;13.650;2023-12-04T10:17:32;9.68;;;4.20;;
76131;SDS011;64877;50.994;13.650;2023-12-04T10:20:12;7.15;;;3.83;;
76131;SDS011;64877;50.994;13.650;2023-12-04T10:23:03;7.82;;;4.18;;
76131;SDS011;64877;50.994;13.650;2023-12-04T10:25:29;7.95;;;3.88;;
76131;SDS011;64877;50.994;13.650;2023-12-04T10:28:09;8.18;;;4.07;;
76131;SDS011;64877;50.994;13.650;2023-12-04T10:30:37;6.57;;;3.72;;
76131;SDS011;64877;50.994;13.650;2023-12-04T10:33:03;7.90;;;4.20;;
76131;SDS011;64877;50.994;13.650;2023-12-04T10:35:30;6.95;;;3.20;;
76131;SDS011;64877;50.994;13.650;2023-12-04T10:38:03;8.63;;;3.70;;
76131;SDS011;64877;50.994;13.650;2023-12-04T10:40:30;5.28;;;3.30;;
76131;SDS011;64877;50.994;13.650;2023-12-04T10:45:37;5.88;;;3.72;;
76131;SDS011;64877;50.994;13.650;2023-12-04T10:48:04;7.88;;;4.22;;
76131;SDS011;64877;50.994;13.650;2023-12-04T10:50:33;6.57;;;3.97;;
76131;SDS011;64877;50.994;13.650;2023-12-04T10:53:05;6.95;;;3.67;;
76131;SDS011;64877;50.994;13.650;2023-12-04T10:55:32;8.05;;;4.32;;
76131;SDS011;64877;50.994;13.650;2023-12-04T10:58:01;7.05;;;3.53;;
76131;SDS011;64877;50.994;13.650;2023-12-04T11:00:30;7.88;;;4.05;;
76131;SDS011;64877;50.994;13.650;2023-12-04T11:03:00;7.65;;;3.65;;
76131;SDS011;64877;50.994;13.650;2023-12-04T11:05:29;8.15;;;4.35;;
76131;SDS011;64877;50.994;13.650;2023-12-04T11:07:58;7.18;;;3.95;;
76131;SDS011;64877;50.994;13.650;2023-12-04T11:10:27;7.22;;;4.25;;
76131;SDS011;64877;50.994;13.650;2023-12-04T11:12:57;8.15;;;4.10;;
76131;SDS011;64877;50.994;13.650;2023-12-04T11:15:29;8.20;;;4.47;;
76131;SDS011;64877;50.994;13.650;2023-12-04T11:20:27;8.95;;;4.50;;
76131;SDS011;64877;50.994;13.650;2023-12-04T11:22:54;7.88;;;3.78;;
76131;SDS011;64877;50.994;13.650;2023-12-04T11:25:20;6.65;;;3.53;;
76131;SDS011;64877;50.994;13.650;2023-12-04T11:27:48;6.47;;;3.00;;
76131;SDS011;64877;50.994;13.650;2023-12-04T11:30:14;7.50;;;3.65;;
76131;SDS011;64877;50.994;13.650;2023-12-04T11:32:44;7.25;;;3.65;;
76131;SDS011;64877;50.994;13.650;2023-12-04T11:35:17;6.55;;;3.33;;
76131;SDS011;64877;50.994;13.650;2023-12-04T11:37:43;6.57;;;3.72;;
76131;SDS011;64877;50.994;13.650;2023-12-04T11:40:14;8.23;;;3.60;;
76131;SDS011;64877;50.994;13.650;2023-12-04T11:42:40;7.30;;;3.30;;
76131;SDS011;64877;50.994;13.650;2023-12-04T11:45:06;5.85;;;2.90;;
76131;SDS011;64877;50.994;13.650;2023-12-04T11:47:54;7.75;;;3.80;;
76131;SDS011;64877;50.994;13.650;2023-12-04T11:50:21;7.55;;;3.25;;
76131;SDS011;64877;50.994;13.650;2023-12-04T11:52:49;5.65;;;2.92;;
76131;SDS011;64877;50.994;13.650;2023-12-04T11:55:18;7.50;;;3.65;;
76131;SDS011;64877;50.994;13.650;2023-12-04T11:57:47;6.72;;;3.58;;
76131;SDS011;64877;50.994;13.650;2023-12-04T12:02:47;7.25;;;3.08;;
76131;SDS011;64877;50.994;13.650;2023-12-04T12:05:12;7.15;;;2.95;;
76131;SDS011;64877;50.994;13.650;2023-12-04T12:07:38;6.63;;;3.38;;
76131;SDS011;64877;50.994;13.650;2023-12-04T12:10:03;8.43;;;3.78;;
76131;SDS011;64877;50.994;13.650;2023-12-04T12:12:30;5.40;;;3.17;;
76131;SDS011;64877;50.994;13.650;2023-12-04T12:14:57;7.25;;;3.55;;
76131;SDS011;64877;50.994;13.650;2023-12-04T12:17:22;8.27;;;3.67;;
76131;SDS011;64877;50.994;13.650;2023-12-04T12:19:47;8.32;;;3.85;;
76131;SDS011;64877;50.994;13.650;2023-12-04T12:22:13;10.70;;;4.40;;
76131;SDS011;64877;50.994;13.650;2023-12-04T12:24:39;7.18;;;3.50;;
76131;SDS011;64877;50.994;13.650;2023-12-04T12:27:05;7.47;;;4.50;;
76131;SDS011;64877;50.994;13.650;2023-12-04T12:29:30;8.60;;;4.28;;
76131;SDS011;64877;50.994;13.650;2023-12-04T12:31:56;6.93;;;3.50;;
76131;SDS011;64877;50.994;13.650;2023-12-04T12:34:21;6.07;;;3.35;;
76131;SDS011;64877;50.994;13.650;2023-12-04T12:36:47;6.10;;;2.80;;
76131;SDS011;64877;50.994;13.650;2023-12-04T12:39:12;7.65;;;3.05;;
76131;SDS011;64877;50.994;13.650;2023-12-04T12:41:38;6.88;;;2.95;;
76131;SDS011;64877;50.994;13.650;2023-12-04T12:44:04;5.65;;;2.83;;
76131;SDS011;64877;50.994;13.650;2023-12-04T12:46:30;5.07;;;2.83;;
76131;SDS011;64877;50.994;13.650;2023-12-04T12:48:56;6.68;;;3.45;;
76131;SDS011;64877;50.994;13.650;2023-12-04T12:51:23;5.07;;;2.75;;
76131;SDS011;64877;50.994;13.650;2023-12-04T12:53:49;5.03;;;2.90;;
76131;SDS011;64877;50.994;13.650;2023-12-04T12:56:14;6.40;;;3.30;;
76131;SDS011;64877;50.994;13.650;2023-12-04T12:58:41;6.47;;;3.03;;
76131;SDS011;64877;50.994;13.650;2023-12-04T13:01:09;6.18;;;3.08;;
76131;SDS011;64877;50.994;13.650;2023-12-04T13:03:35;6.97;;;3.33;;
76131;SDS011;64877;50.994;13.650;2023-12-04T13:06:01;6.60;;;3.63;;
76131;SDS011;64877;50.994;13.650;2023-12-04T13:08:26;5.95;;;3.35;;
76131;SDS011;64877;50.994;13.650;2023-12-04T13:10:52;6.10;;;3.40;;
76131;SDS011;64877;50.994;13.650;2023-12-04T13:13:18;9.63;;;4.43;;
76131;SDS011;64877;50.994;13.650;2023-12-04T13:15:44;9.65;;;5.25;;
76131;SDS011;64877;50.994;13.650;2023-12-04T13:18:09;7.88;;;4.07;;
76131;SDS011;64877;50.994;13.650;2023-12-04T13:20:35;6.78;;;4.03;;
76131;SDS011;64877;50.994;13.650;2023-12-04T13:23:01;7.88;;;3.28;;
76131;SDS011;64877;50.994;13.650;2023-12-04T13:25:26;9.00;;;4.05;;
76131;SDS011;64877;50.994;13.650;2023-12-04T13:27:52;7.70;;;3.92;;
76131;SDS011;64877;50.994;13.650;2023-12-04T13:30:18;12.07;;;5.75;;
76131;SDS011;64877;50.994;13.650;2023-12-04T13:32:44;13.50;;;7.80;;
76131;SDS011;64877;50.994;13.650;2023-12-04T13:35:10;12.43;;;5.80;;
76131;SDS011;64877;50.994;13.650;2023-12-04T13:37:36;11.82;;;6.28;;
76131;SDS011;64877;50.994;13.650;2023-12-04T13:40:03;10.57;;;5.57;;
76131;SDS011;64877;50.994;13.650;2023-12-04T13:45:18;11.10;;;4.95;;
76131;SDS011;64877;50.994;13.650;2023-12-04T13:47:47;8.95;;;4.20;;
76131;SDS011;64877;50.994;13.650;2023-12-04T13:50:13;7.03;;;4.10;;
76131;SDS011;64877;50.994;13.650;2023-12-04T13:52:38;8.55;;;3.95;;
76131;SDS011;64877;50.994;13.650;2023-12-04T13:55:04;8.68;;;3.70;;
76131;SDS011;64877;50.994;13.650;2023-12-04T13:57:40;7.97;;;4.07;;
76131;SDS011;64877;50.994;13.650;2023-12-04T14:00:28;7.47;;;4.20;;
76131;SDS011;64877;50.994;13.650;2023-12-04T14:02:53;9.27;;;4.80;;
76131;SDS011;64877;50.994;13.650;2023-12-04T14:05:25;7.03;;;4.07;;
76131;SDS011;64877;50.994;13.650;2023-12-04T14:07:50;9.57;;;5.00;;
76131;SDS011;64877;50.994;13.650;2023-12-04T14:10:16;10.32;;;5.10;;
76131;SDS011;64877;50.994;13.650;2023-12-04T14:12:41;8.85;;;5.53;;
76131;SDS011;64877;50.994;13.650;2023-12-04T14:15:07;8.35;;;4.35;;
76131;SDS011;64877;50.994;13.650;2023-12-04T14:17:32;10.48;;;4.82;;
76131;SDS011;64877;50.994;13.650;2023-12-04T14:19:58;8.60;;;5.28;;
76131;SDS011;64877;50.994;13.650;2023-12-04T14:22:24;10.88;;;4.88;;
76131;SDS011;64877;50.994;13.650;2023-12-04T14:24:50;8.80;;;4.72;;
76131;SDS011;64877;50.994;13.650;2023-12-04T14:27:16;10.15;;;4.60;;
76131;SDS011;64877;50.994;13.650;2023-12-04T14:29:41;10.70;;;4.55;;
76131;SDS011;64877;50.994;13.650;2023-12-04T14:32:07;10.55;;;5.00;;
76131;SDS011;64877;50.994;13.650;2023-12-04T14:34:32;10.23;;;5.32;;
76131;SDS011;64877;50.994;13.650;2023-12-04T14:36:58;8.98;;;4.95;;